Time;durP1;ratioP1;P1;durP2;ratioP2;P2;SDS_P1;SDS_P2;PMS_P1;PMS_P2;Temp;Humidity;BMP_temperature;BMP_pressure;BME280_temperature;BME280_humidity;BME280_pressure;Samples;Min_cycle;Max_cycle;Signal;HPM_P1;HPM_P2
2022/07/29 00:01:36;;;;;;;3.08;1.58;;;;;;;;;;5021181;28;20034;-61
2022/07/29 00:04:02;;;;;;;3.75;1.70;;;;;;;;;;5021488;28;20025;-60
2022/07/29 00:06:28;;;;;;;4.15;1.98;;;;;;;;;;5023153;28;20018;-60
2022/07/29 00:08:55;;;;;;;7.13;2.00;;;;;;;;;;5021323;28;20021;-60
2022/07/29 00:11:21;;;;;;;4.43;1.70;;;;;;;;;;5024084;28;20747;-59
2022/07/29 00:13:47;;;;;;;6.38;1.92;;;;;;;;;;5025371;28;20528;-60
2022/07/29 00:16:13;;;;;;;4.40;1.73;;;;;;;;;;5017638;28;20041;-60
2022/07/29 00:18:39;;;;;;;6.35;1.95;;;;;;;;;;5020984;28;20069;-59
2022/07/29 00:21:05;;;;;;;8.20;2.55;;;;;;;;;;5022668;28;20433;-59
2022/07/29 00:23:31;;;;;;;4.30;1.92;;;;;;;;;;5027976;28;20074;-59
2022/07/29 00:25:57;;;;;;;4.40;1.80;;;;;;;;;;5019575;28;20469;-60
2022/07/29 00:28:23;;;;;;;13.38;2.00;;;;;;;;;;5016313;28;20429;-60
2022/07/29 00:30:49;;;;;;;4.25;1.90;;;;;;;;;;5016402;28;20060;-60
2022/07/29 00:33:14;;;;;;;2.90;1.90;;;;;;;;;;5022348;28;20030;-60
2022/07/29 00:35:43;;;;;;;9.82;2.35;;;;;;;;;;5023273;28;20028;-61
2022/07/29 00:38:10;;;;;;;6.07;2.30;;;;;;;;;;5015822;28;20033;-59
2022/07/29 00:40:36;;;;;;;2.83;1.90;;;;;;;;;;5022247;28;20028;-60
2022/07/29 00:43:02;;;;;;;5.93;2.42;;;;;;;;;;5020319;28;20033;-59
2022/07/29 00:45:29;;;;;;;4.20;2.50;;;;;;;;;;5021072;28;20060;-60
2022/07/29 00:47:55;;;;;;;4.03;2.28;;;;;;;;;;5019848;28;20022;-59
2022/07/29 00:50:21;;;;;;;5.65;2.03;;;;;;;;;;5025418;28;20076;-59
2022/07/29 00:52:48;;;;;;;8.45;2.92;;;;;;;;;;5022858;28;20112;-60
2022/07/29 00:55:14;;;;;;;6.93;2.35;;;;;;;;;;5026135;28;20104;-59
2022/07/29 00:57:41;;;;;;;5.97;2.50;;;;;;;;;;5019710;28;20042;-60
2022/07/29 01:00:09;;;;;;;4.53;1.90;;;;;;;;;;5022117;28;20030;-60
2022/07/29 01:02:35;;;;;;;3.05;1.88;;;;;;;;;;5025000;28;20029;-59
2022/07/29 01:05:03;;;;;;;8.27;2.40;;;;;;;;;;5021562;28;20033;-59
2022/07/29 01:07:30;;;;;;;5.00;2.45;;;;;;;;;;5019784;28;20042;-60
2022/07/29 01:09:57;;;;;;;4.80;2.40;;;;;;;;;;5024031;28;20058;-60
2022/07/29 01:12:24;;;;;;;4.82;2.63;;;;;;;;;;5021600;28;20112;-60
2022/07/29 01:14:51;;;;;;;5.95;2.85;;;;;;;;;;5020245;28;20381;-59
2022/07/29 01:17:23;;;;;;;5.55;2.40;;;;;;;;;;5017666;28;20034;-60
2022/07/29 01:20:01;;;;;;;4.50;2.38;;;;;;;;;;5012277;28;20041;-60
2022/07/29 01:22:29;;;;;;;8.73;2.80;;;;;;;;;;5023301;28;20113;-60
2022/07/29 01:25:14;;;;;;;5.35;2.78;;;;;;;;;;5016905;28;20033;-60
2022/07/29 01:28:01;;;;;;;5.78;3.20;;;;;;;;;;5021820;28;20791;-60
2022/07/29 01:30:29;;;;;;;6.32;3.20;;;;;;;;;;5023056;28;20435;-60
2022/07/29 01:32:57;;;;;;;6.05;2.90;;;;;;;;;;5022528;28;20501;-60
2022/07/29 01:35:28;;;;;;;5.97;3.45;;;;;;;;;;5013543;28;20036;-60
2022/07/29 01:38:14;;;;;;;5.97;3.05;;;;;;;;;;5024419;28;20037;-60
2022/07/29 01:40:45;;;;;;;7.78;3.53;;;;;;;;;;5027006;28;20030;-60
2022/07/29 01:43:16;;;;;;;10.65;2.97;;;;;;;;;;5019187;28;20558;-60
2022/07/29 01:45:47;;;;;;;11.38;3.55;;;;;;;;;;5014617;28;20452;-60
2022/07/29 01:48:18;;;;;;;10.88;3.20;;;;;;;;;;5018565;28;20464;-60
2022/07/29 01:50:49;;;;;;;5.43;3.30;;;;;;;;;;5016022;28;20025;-59
2022/07/29 01:53:18;;;;;;;6.00;3.38;;;;;;;;;;5019343;28;20041;-60
2022/07/29 01:55:45;;;;;;;7.03;3.50;;;;;;;;;;5021797;28;20030;-60
2022/07/29 01:58:12;;;;;;;8.13;3.63;;;;;;;;;;5023689;28;20065;-61
2022/07/29 02:00:39;;;;;;;7.68;3.42;;;;;;;;;;5019955;28;20517;-60
2022/07/29 02:03:08;;;;;;;9.25;3.67;;;;;;;;;;5021186;28;20033;-60
2022/07/29 02:05:35;;;;;;;8.48;3.42;;;;;;;;;;5013607;28;20489;-59
2022/07/29 02:08:02;;;;;;;9.65;3.60;;;;;;;;;;5018793;28;20440;-60
2022/07/29 02:10:30;;;;;;;8.27;3.33;;;;;;;;;;5012141;28;20034;-59
2022/07/29 02:12:57;;;;;;;8.98;3.28;;;;;;;;;;5026840;28;20021;-59
2022/07/29 02:15:24;;;;;;;10.50;3.47;;;;;;;;;;5017963;28;20101;-60
2022/07/29 02:17:53;;;;;;;10.23;3.20;;;;;;;;;;5015430;28;20057;-59
2022/07/29 02:20:20;;;;;;;9.02;3.55;;;;;;;;;;5017110;28;20543;-60
2022/07/29 02:22:47;;;;;;;5.88;3.33;;;;;;;;;;5015388;28;20022;-60
2022/07/29 02:25:14;;;;;;;11.05;3.40;;;;;;;;;;5018143;28;20103;-59
2022/07/29 02:27:40;;;;;;;10.82;4.05;;;;;;;;;;5018740;28;20037;-60
2022/07/29 02:30:07;;;;;;;7.70;3.92;;;;;;;;;;5017062;28;20030;-61
2022/07/29 02:32:36;;;;;;;7.45;3.30;;;;;;;;;;5014103;28;20037;-60
2022/07/29 02:35:02;;;;;;;6.55;3.30;;;;;;;;;;5024119;28;20029;-60
2022/07/29 02:37:29;;;;;;;6.70;2.80;;;;;;;;;;5021739;28;20120;-60
2022/07/29 02:39:56;;;;;;;5.70;2.95;;;;;;;;;;5020905;28;20044;-60
2022/07/29 02:42:22;;;;;;;7.43;3.20;;;;;;;;;;5020067;28;20460;-59
2022/07/29 02:44:48;;;;;;;10.10;3.45;;;;;;;;;;5031466;28;20112;-59
2022/07/29 02:47:19;;;;;;;6.90;3.08;;;;;;;;;;5014991;28;20029;-60
2022/07/29 02:49:52;;;;;;;5.65;3.00;;;;;;;;;;5024094;28;20021;-60
2022/07/29 02:52:21;;;;;;;9.32;3.00;;;;;;;;;;5016569;28;20052;-59
2022/07/29 02:55:11;;;;;;;7.35;3.25;;;;;;;;;;5019606;28;20526;-59
2022/07/29 02:57:45;;;;;;;4.82;2.85;;;;;;;;;;5018163;28;20065;-60
2022/07/29 03:00:12;;;;;;;6.45;3.38;;;;;;;;;;5016964;28;20107;-60
2022/07/29 03:02:39;;;;;;;5.82;3.10;;;;;;;;;;5021219;28;20029;-60
2022/07/29 03:05:07;;;;;;;10.90;3.03;;;;;;;;;;5019560;28;20425;-60
2022/07/29 03:07:34;;;;;;;8.63;3.83;;;;;;;;;;5018545;28;20034;-60
2022/07/29 03:10:00;;;;;;;9.82;2.85;;;;;;;;;;5018610;28;20032;-60
2022/07/29 03:12:27;;;;;;;6.53;3.42;;;;;;;;;;5013406;28;20029;-60
2022/07/29 03:14:53;;;;;;;7.93;2.97;;;;;;;;;;5025728;28;20037;-59
2022/07/29 03:17:20;;;;;;;6.45;3.28;;;;;;;;;;5018778;28;20497;-60
2022/07/29 03:19:46;;;;;;;9.18;3.20;;;;;;;;;;5015771;28;20029;-59
2022/07/29 03:22:12;;;;;;;5.72;3.00;;;;;;;;;;5015401;28;20099;-59
2022/07/29 03:24:38;;;;;;;7.90;3.20;;;;;;;;;;5017495;28;20080;-59
2022/07/29 03:27:05;;;;;;;11.30;3.92;;;;;;;;;;5017735;28;20081;-59
2022/07/29 03:29:31;;;;;;;5.65;3.00;;;;;;;;;;5024367;28;20056;-60
2022/07/29 03:31:58;;;;;;;10.05;3.40;;;;;;;;;;5022135;28;20026;-58
2022/07/29 03:34:23;;;;;;;5.30;2.85;;;;;;;;;;5023896;28;20033;-59
2022/07/29 03:36:50;;;;;;;9.52;3.38;;;;;;;;;;5026440;28;20029;-60
2022/07/29 03:39:18;;;;;;;7.05;3.10;;;;;;;;;;5019218;28;20038;-60
2022/07/29 03:41:46;;;;;;;6.82;3.10;;;;;;;;;;5020693;28;20030;-60
2022/07/29 03:44:12;;;;;;;7.72;3.05;;;;;;;;;;5016809;28;20040;-60
2022/07/29 03:46:39;;;;;;;6.90;3.55;;;;;;;;;;5026005;28;20029;-59
2022/07/29 03:49:07;;;;;;;6.68;3.30;;;;;;;;;;5022970;28;20108;-59
2022/07/29 03:51:33;;;;;;;6.82;3.40;;;;;;;;;;5022703;28;20029;-60
2022/07/29 03:54:00;;;;;;;8.35;3.33;;;;;;;;;;5020617;28;20040;-60
2022/07/29 03:56:27;;;;;;;5.10;3.17;;;;;;;;;;5018785;28;20650;-59
2022/07/29 03:58:54;;;;;;;7.22;3.17;;;;;;;;;;5019342;28;20037;-60
2022/07/29 04:01:21;;;;;;;7.65;3.60;;;;;;;;;;5021090;28;20097;-60
2022/07/29 04:03:47;;;;;;;9.73;3.15;;;;;;;;;;5029361;28;20041;-61
2022/07/29 04:06:13;;;;;;;6.43;2.80;;;;;;;;;;5020437;28;20056;-60
2022/07/29 04:08:39;;;;;;;6.78;3.47;;;;;;;;;;5020836;28;20038;-59
2022/07/29 04:11:06;;;;;;;11.27;3.38;;;;;;;;;;5025184;28;20195;-60
2022/07/29 04:13:32;;;;;;;5.28;2.90;;;;;;;;;;5019330;28;20039;-60
2022/07/29 04:15:58;;;;;;;8.80;3.22;;;;;;;;;;5020701;28;20030;-58
2022/07/29 04:18:25;;;;;;;8.70;3.40;;;;;;;;;;5026128;28;20040;-60
2022/07/29 04:20:51;;;;;;;6.22;3.10;;;;;;;;;;5016434;28;20037;-60
2022/07/29 04:23:17;;;;;;;6.28;3.03;;;;;;;;;;5017166;28;20026;-60
2022/07/29 04:25:43;;;;;;;9.13;3.15;;;;;;;;;;5022272;28;20029;-60
2022/07/29 04:28:09;;;;;;;9.23;2.70;;;;;;;;;;5021142;28;20061;-60
2022/07/29 04:30:36;;;;;;;6.70;2.78;;;;;;;;;;5021927;28;20132;-57
2022/07/29 04:33:03;;;;;;;11.18;3.70;;;;;;;;;;5016356;28;20432;-60
2022/07/29 04:35:29;;;;;;;5.85;2.80;;;;;;;;;;5019759;28;20041;-59
2022/07/29 04:37:55;;;;;;;8.07;2.92;;;;;;;;;;5018725;28;20086;-59
2022/07/29 04:40:21;;;;;;;5.47;2.78;;;;;;;;;;5023737;28;20603;-60
2022/07/29 04:42:47;;;;;;;6.95;3.33;;;;;;;;;;5028578;28;20017;-60
2022/07/29 04:45:13;;;;;;;7.68;2.78;;;;;;;;;;5018744;28;20072;-60
2022/07/29 04:47:39;;;;;;;6.00;3.25;;;;;;;;;;5014862;28;20557;-59
2022/07/29 04:50:06;;;;;;;10.90;3.30;;;;;;;;;;5019666;28;20148;-60
2022/07/29 04:52:34;;;;;;;6.93;2.95;;;;;;;;;;5015298;28;20133;-60
2022/07/29 04:55:00;;;;;;;8.05;3.03;;;;;;;;;;5022688;28;20041;-60
2022/07/29 04:57:26;;;;;;;5.63;2.63;;;;;;;;;;5024572;28;20520;-59
2022/07/29 04:59:52;;;;;;;7.18;2.50;;;;;;;;;;5024182;28;20017;-60
2022/07/29 05:02:18;;;;;;;6.32;3.13;;;;;;;;;;5019433;28;20026;-59
2022/07/29 05:04:44;;;;;;;5.20;2.60;;;;;;;;;;5020105;28;20071;-58
2022/07/29 05:07:10;;;;;;;4.47;2.85;;;;;;;;;;5026742;28;20061;-60
2022/07/29 05:09:36;;;;;;;9.88;2.95;;;;;;;;;;5020584;28;20017;-60
2022/07/29 05:12:02;;;;;;;6.95;3.25;;;;;;;;;;5017972;28;20033;-58
2022/07/29 05:14:28;;;;;;;8.55;2.67;;;;;;;;;;5017424;28;20402;-59
2022/07/29 05:16:56;;;;;;;7.50;3.13;;;;;;;;;;5018603;28;20014;-60
2022/07/29 05:19:22;;;;;;;7.38;2.55;;;;;;;;;;5020033;28;20021;-59
2022/07/29 05:21:48;;;;;;;7.68;2.35;;;;;;;;;;5019758;28;20033;-60
2022/07/29 05:24:14;;;;;;;7.00;3.17;;;;;;;;;;5014170;28;20531;-60
2022/07/29 05:26:40;;;;;;;3.60;2.22;;;;;;;;;;5020438;28;20030;-60
2022/07/29 05:29:06;;;;;;;4.82;2.25;;;;;;;;;;5017058;28;20037;-60
2022/07/29 05:31:33;;;;;;;6.30;2.38;;;;;;;;;;5016375;28;20036;-60
2022/07/29 05:33:59;;;;;;;4.07;2.50;;;;;;;;;;5026164;28;20040;-60
2022/07/29 05:36:25;;;;;;;7.75;2.42;;;;;;;;;;5023837;28;20037;-60
2022/07/29 05:38:51;;;;;;;4.60;2.15;;;;;;;;;;5025787;28;20459;-60
2022/07/29 05:41:18;;;;;;;6.38;2.50;;;;;;;;;;5021439;28;20493;-60
2022/07/29 05:43:43;;;;;;;4.63;2.58;;;;;;;;;;5026374;28;20037;-60
2022/07/29 05:46:10;;;;;;;5.97;2.80;;;;;;;;;;5019350;28;20037;-59
2022/07/29 05:48:35;;;;;;;5.43;2.60;;;;;;;;;;5022650;28;20040;-60
2022/07/29 05:51:02;;;;;;;5.13;2.47;;;;;;;;;;5029198;28;20025;-59
2022/07/29 05:53:28;;;;;;;8.45;2.60;;;;;;;;;;5019360;28;20462;-60
2022/07/29 05:55:54;;;;;;;6.68;2.70;;;;;;;;;;5023120;28;20473;-60
2022/07/29 05:58:20;;;;;;;5.82;2.40;;;;;;;;;;5022913;28;20060;-60
2022/07/29 06:00:46;;;;;;;8.05;2.97;;;;;;;;;;5021663;28;20018;-60
2022/07/29 06:03:12;;;;;;;5.40;2.53;;;;;;;;;;5021537;28;20026;-60
2022/07/29 06:05:38;;;;;;;6.95;2.55;;;;;;;;;;5017019;28;20025;-60
2022/07/29 06:08:08;;;;;;;4.20;2.25;;;;;;;;;;5013771;28;20037;-60
2022/07/29 06:10:36;;;;;;;8.38;2.50;;;;;;;;;;5029014;28;20463;-60
2022/07/29 06:13:03;;;;;;;5.63;2.50;;;;;;;;;;5018977;28;20477;-60
2022/07/29 06:15:29;;;;;;;6.50;3.00;;;;;;;;;;5022355;28;20033;-60
2022/07/29 06:17:54;;;;;;;7.78;2.17;;;;;;;;;;5024458;28;20029;-60
2022/07/29 06:20:20;;;;;;;8.13;2.78;;;;;;;;;;5020890;28;20026;-60
2022/07/29 06:22:46;;;;;;;5.38;2.10;;;;;;;;;;5017003;28;20026;-60
2022/07/29 06:25:12;;;;;;;5.70;2.25;;;;;;;;;;5013620;28;20018;-58
2022/07/29 06:27:38;;;;;;;5.82;2.67;;;;;;;;;;5018230;28;20040;-60
2022/07/29 06:30:06;;;;;;;7.90;2.45;;;;;;;;;;5021425;28;20080;-59
2022/07/29 06:32:33;;;;;;;6.10;2.20;;;;;;;;;;5017126;28;20037;-59
2022/07/29 06:34:59;;;;;;;6.05;2.20;;;;;;;;;;5019465;28;20037;-60
2022/07/29 06:37:25;;;;;;;5.90;2.30;;;;;;;;;;5017708;28;20040;-60
2022/07/29 06:42:38;;;;;;;8.75;2.40;;;;;;;;;;5026428;28;20076;-60
2022/07/29 06:45:04;;;;;;;12.63;2.90;;;;;;;;;;5020750;28;20454;-59
2022/07/29 06:47:30;;;;;;;5.25;2.10;;;;;;;;;;5015389;28;20498;-60
2022/07/29 06:49:56;;;;;;;5.95;2.10;;;;;;;;;;5018127;28;20060;-60
2022/07/29 06:52:22;;;;;;;4.55;2.20;;;;;;;;;;5020874;28;20398;-60
2022/07/29 06:54:48;;;;;;;3.20;1.80;;;;;;;;;;5018468;28;20037;-61
2022/07/29 06:57:14;;;;;;;8.55;2.08;;;;;;;;;;5016589;28;20057;-60
2022/07/29 06:59:40;;;;;;;6.95;2.58;;;;;;;;;;5014686;28;20060;-61
2022/07/29 07:02:06;;;;;;;5.55;2.10;;;;;;;;;;5019819;28;20030;-61
2022/07/29 07:04:33;;;;;;;10.05;2.50;;;;;;;;;;5020628;28;20109;-61
2022/07/29 07:06:59;;;;;;;8.10;2.83;;;;;;;;;;5023699;28;20065;-61
2022/07/29 07:09:25;;;;;;;8.07;2.00;;;;;;;;;;5025102;28;20469;-61
2022/07/29 07:11:51;;;;;;;9.88;2.22;;;;;;;;;;5027813;28;20555;-61
2022/07/29 07:14:17;;;;;;;3.60;1.90;;;;;;;;;;5028368;28;20075;-60
2022/07/29 07:16:43;;;;;;;4.72;1.70;;;;;;;;;;5024435;28;20442;-60
2022/07/29 07:19:09;;;;;;;3.92;1.92;;;;;;;;;;5028606;28;20038;-61
2022/07/29 07:21:35;;;;;;;5.93;1.92;;;;;;;;;;5020131;28;20033;-61
2022/07/29 07:24:01;;;;;;;9.68;2.25;;;;;;;;;;5030045;28;20030;-61
2022/07/29 07:26:27;;;;;;;3.63;1.50;;;;;;;;;;5025642;28;20084;-61
2022/07/29 07:28:53;;;;;;;4.05;1.70;;;;;;;;;;5030087;28;20464;-60
2022/07/29 07:31:19;;;;;;;5.30;2.30;;;;;;;;;;5037577;28;20088;-61
2022/07/29 07:33:45;;;;;;;6.25;2.13;;;;;;;;;;5025163;28;20697;-61
2022/07/29 07:36:11;;;;;;;6.18;1.52;;;;;;;;;;5030113;28;20375;-61
2022/07/29 07:38:37;;;;;;;6.43;2.05;;;;;;;;;;5033822;28;20079;-61
2022/07/29 07:41:03;;;;;;;6.93;1.75;;;;;;;;;;5033425;28;20084;-60
2022/07/29 07:43:29;;;;;;;7.35;2.13;;;;;;;;;;5032813;28;20032;-60
2022/07/29 07:45:55;;;;;;;3.42;1.83;;;;;;;;;;5033816;28;20064;-61
2022/07/29 07:48:21;;;;;;;4.15;1.88;;;;;;;;;;5026424;28;22183;-61
2022/07/29 07:50:49;;;;;;;4.38;2.00;;;;;;;;;;5032904;28;20037;-61
2022/07/29 07:53:15;;;;;;;4.38;1.23;;;;;;;;;;5044106;28;20031;-61
2022/07/29 07:55:42;;;;;;;5.28;1.83;;;;;;;;;;5033421;28;20381;-61
2022/07/29 07:58:08;;;;;;;5.55;2.08;;;;;;;;;;5033143;28;20505;-61
2022/07/29 08:00:34;;;;;;;8.65;2.08;;;;;;;;;;5032197;28;20115;-61
2022/07/29 08:03:00;;;;;;;5.32;2.03;;;;;;;;;;5033299;28;20079;-62
2022/07/29 08:05:26;;;;;;;6.93;1.80;;;;;;;;;;5018543;28;20030;-62
2022/07/29 08:07:52;;;;;;;4.22;1.83;;;;;;;;;;5024094;28;20025;-61
2022/07/29 08:13:08;;;;;;;6.38;1.48;;;;;;;;;;5026988;28;20052;-61
2022/07/29 08:15:35;;;;;;;4.25;1.73;;;;;;;;;;5026858;28;20025;-60
2022/07/29 08:18:01;;;;;;;8.27;1.90;;;;;;;;;;5031967;28;20535;-61
2022/07/29 08:20:27;;;;;;;6.15;1.90;;;;;;;;;;5030744;28;20105;-61
2022/07/29 08:22:53;;;;;;;5.75;1.65;;;;;;;;;;5037116;28;20366;-61
2022/07/29 08:25:20;;;;;;;7.97;1.60;;;;;;;;;;5031487;28;20058;-60
2022/07/29 08:27:46;;;;;;;5.15;1.52;;;;;;;;;;5033029;28;20053;-61
2022/07/29 08:30:12;;;;;;;4.20;1.58;;;;;;;;;;5032350;28;20326;-61
2022/07/29 08:32:38;;;;;;;4.53;1.50;;;;;;;;;;5026973;28;20108;-62
2022/07/29 08:35:05;;;;;;;4.93;1.75;;;;;;;;;;5034533;28;20037;-61
2022/07/29 08:37:31;;;;;;;8.95;2.05;;;;;;;;;;5029350;28;20120;-61
2022/07/29 08:39:56;;;;;;;3.22;1.42;;;;;;;;;;5023101;28;20036;-61
2022/07/29 08:42:22;;;;;;;4.15;1.50;;;;;;;;;;5031919;28;20487;-61
2022/07/29 08:44:50;;;;;;;4.93;1.20;;;;;;;;;;5032288;28;20021;-61
2022/07/29 08:47:16;;;;;;;3.80;1.50;;;;;;;;;;5028499;28;20045;-61
2022/07/29 08:49:42;;;;;;;3.38;1.20;;;;;;;;;;5028212;28;20500;-61
2022/07/29 08:52:10;;;;;;;4.57;1.33;;;;;;;;;;5024913;28;20053;-61
2022/07/29 08:54:37;;;;;;;5.97;1.15;;;;;;;;;;5032302;28;20025;-60
2022/07/29 08:57:03;;;;;;;3.80;1.38;;;;;;;;;;5031900;28;20095;-61
2022/07/29 08:59:30;;;;;;;5.78;1.50;;;;;;;;;;5032147;28;20025;-61
2022/07/29 09:01:59;;;;;;;9.40;2.10;;;;;;;;;;5031817;28;20021;-62
2022/07/29 09:04:27;;;;;;;2.33;0.95;;;;;;;;;;5032320;28;20048;-61
2022/07/29 09:06:55;;;;;;;6.45;1.52;;;;;;;;;;5026284;28;20029;-61
2022/07/29 09:09:21;;;;;;;3.25;1.00;;;;;;;;;;5023525;28;20117;-62
2022/07/29 09:11:47;;;;;;;3.33;1.17;;;;;;;;;;5028183;28;20021;-62
2022/07/29 09:14:13;;;;;;;1.90;1.02;;;;;;;;;;5031572;28;20468;-61
2022/07/29 09:16:51;;;;;;;4.88;1.63;;;;;;;;;;5031264;28;20456;-61
2022/07/29 09:19:20;;;;;;;3.58;1.13;;;;;;;;;;5024557;28;20061;-62
2022/07/29 09:21:58;;;;;;;4.30;1.25;;;;;;;;;;5029125;28;20098;-62
2022/07/29 09:24:45;;;;;;;4.05;1.25;;;;;;;;;;5028385;28;20025;-61
2022/07/29 09:27:26;;;;;;;4.35;1.00;;;;;;;;;;5020553;28;20029;-61
2022/07/29 09:29:58;;;;;;;3.13;1.10;;;;;;;;;;5031227;28;20034;-61
2022/07/29 09:32:24;;;;;;;2.60;1.15;;;;;;;;;;5030436;28;20033;-60
2022/07/29 09:34:50;;;;;;;4.07;1.27;;;;;;;;;;5030940;28;20172;-60
2022/07/29 09:37:28;;;;;;;2.50;1.10;;;;;;;;;;5026193;28;20045;-61
2022/07/29 09:39:54;;;;;;;5.70;1.42;;;;;;;;;;5031648;28;20559;-62
2022/07/29 09:42:32;;;;;;;3.00;1.40;;;;;;;;;;5022892;28;20037;-62
2022/07/29 09:44:58;;;;;;;3.08;1.10;;;;;;;;;;5031571;28;20484;-62
2022/07/29 09:47:40;;;;;;;4.22;1.10;;;;;;;;;;5031076;28;20048;-61
2022/07/29 09:50:06;;;;;;;2.42;1.20;;;;;;;;;;5024441;28;20032;-62
2022/07/29 09:52:32;;;;;;;6.22;1.20;;;;;;;;;;5029096;28;20064;-61
2022/07/29 09:55:06;;;;;;;1.85;0.90;;;;;;;;;;5025256;28;20041;-62
2022/07/29 09:57:31;;;;;;;;;;;;;;;;;;5018753;28;20110;-61
2022/07/29 10:00:01;;;;;;;2.42;1.40;;;;;;;;;;5015902;28;20321;-62
2022/07/29 10:02:29;;;;;;;9.68;1.08;;;;;;;;;;5018372;28;20026;-62
2022/07/29 10:04:55;;;;;;;3.38;1.40;;;;;;;;;;5038281;28;20021;-62
2022/07/29 10:07:21;;;;;;;3.00;0.93;;;;;;;;;;5025444;28;20122;-61
2022/07/29 10:09:54;;;;;;;3.90;0.80;;;;;;;;;;5020576;28;20037;-62
2022/07/29 10:12:20;;;;;;;3.85;1.20;;;;;;;;;;5018752;28;20069;-61
2022/07/29 10:14:46;;;;;;;2.40;1.17;;;;;;;;;;5028454;28;20025;-62
2022/07/29 10:17:12;;;;;;;4.82;1.15;;;;;;;;;;5023469;28;20120;-62
2022/07/29 10:19:39;;;;;;;4.45;1.35;;;;;;;;;;5020964;28;20478;-61
2022/07/29 10:22:07;;;;;;;5.78;1.08;;;;;;;;;;5027598;28;20026;-62
2022/07/29 10:24:33;;;;;;;6.15;1.25;;;;;;;;;;5027507;28;20025;-62
2022/07/29 10:27:01;;;;;;;3.15;1.15;;;;;;;;;;5019424;28;20500;-61
2022/07/29 10:29:27;;;;;;;2.92;1.20;;;;;;;;;;5014067;28;20091;-62
2022/07/29 10:31:58;;;;;;;5.30;1.17;;;;;;;;;;5022322;28;20033;-62
2022/07/29 10:34:30;;;;;;;2.20;1.10;;;;;;;;;;5018856;28;20116;-62
2022/07/29 10:37:18;;;;;;;3.45;1.05;;;;;;;;;;5027817;28;20029;-64
2022/07/29 10:39:55;;;;;;;3.53;1.30;;;;;;;;;;5027670;28;20038;-61
2022/07/29 10:42:24;;;;;;;2.90;1.10;;;;;;;;;;5032070;28;20067;-61
2022/07/29 10:44:50;;;;;;;3.55;1.15;;;;;;;;;;5028520;28;20030;-62
2022/07/29 10:47:26;;;;;;;5.70;1.85;;;;;;;;;;5030550;28;20138;-62
2022/07/29 10:50:05;;;;;;;3.20;1.30;;;;;;;;;;5025600;28;20049;-61
2022/07/29 10:52:52;;;;;;;3.60;1.10;;;;;;;;;;5026754;28;20030;-62
2022/07/29 10:55:32;;;;;;;3.53;1.15;;;;;;;;;;5036156;28;20461;-62
2022/07/29 10:58:14;;;;;;;4.43;1.10;;;;;;;;;;5045906;28;20138;-61
2022/07/29 11:00:40;;;;;;;7.72;1.45;;;;;;;;;;5048115;28;20070;-62
2022/07/29 11:03:06;;;;;;;5.15;1.25;;;;;;;;;;5053794;28;20152;-62
2022/07/29 11:05:51;;;;;;;3.47;1.00;;;;;;;;;;5053870;28;20029;-63
2022/07/29 11:08:21;;;;;;;3.28;0.80;;;;;;;;;;5042062;28;20035;-60
2022/07/29 11:10:47;;;;;;;2.47;0.88;;;;;;;;;;5052301;28;20100;-62
2022/07/29 11:13:33;;;;;;;2.97;1.00;;;;;;;;;;5047309;28;20106;-61
2022/07/29 11:15:59;;;;;;;6.80;1.17;;;;;;;;;;5053986;28;20029;-62
2022/07/29 11:18:25;;;;;;;3.35;1.08;;;;;;;;;;5045659;28;20206;-61
2022/07/29 11:20:55;;;;;;;2.42;0.88;;;;;;;;;;5043807;28;20116;-61
2022/07/29 11:23:29;;;;;;;1.92;1.02;;;;;;;;;;5043095;28;20033;-61
2022/07/29 11:26:21;;;;;;;3.63;1.20;;;;;;;;;;5041762;28;20036;-61
2022/07/29 11:29:04;;;;;;;2.42;0.90;;;;;;;;;;5052398;28;20075;-60
2022/07/29 11:31:42;;;;;;;3.92;1.02;;;;;;;;;;5050131;28;20108;-62
2022/07/29 11:34:19;;;;;;;2.53;1.42;;;;;;;;;;5048429;28;20029;-62
2022/07/29 11:37:03;;;;;;;3.45;1.05;;;;;;;;;;5052019;28;20044;-62
2022/07/29 11:39:29;;;;;;;5.00;1.20;;;;;;;;;;5043170;28;20033;-60
2022/07/29 11:42:15;;;;;;;2.90;1.10;;;;;;;;;;5053047;28;20370;-62
2022/07/29 11:44:54;;;;;;;4.00;1.10;;;;;;;;;;5048167;28;20036;-62
2022/07/29 11:47:20;;;;;;;5.10;1.15;;;;;;;;;;5048643;28;21863;-62
2022/07/29 11:49:46;;;;;;;3.80;1.30;;;;;;;;;;5049387;28;20032;-62
2022/07/29 11:52:13;;;;;;;2.65;1.20;;;;;;;;;;5051977;28;20017;-62
2022/07/29 11:54:41;;;;;;;5.68;1.60;;;;;;;;;;5053457;28;20519;-61
2022/07/29 11:57:08;;;;;;;1.70;1.10;;;;;;;;;;5063491;28;20045;-62
2022/07/29 11:59:39;;;;;;;3.60;1.27;;;;;;;;;;5055214;28;20111;-61
2022/07/29 12:02:05;;;;;;;2.63;1.13;;;;;;;;;;5052804;28;20056;-62
2022/07/29 12:04:31;;;;;;;2.97;1.10;;;;;;;;;;5053253;28;20025;-62
2022/07/29 12:06:57;;;;;;;3.15;1.50;;;;;;;;;;5053318;28;20079;-62
2022/07/29 12:09:23;;;;;;;3.63;1.52;;;;;;;;;;5030609;28;20116;-63
2022/07/29 12:11:49;;;;;;;2.75;0.90;;;;;;;;;;5044028;28;20056;-63
2022/07/29 12:14:29;;;;;;;3.25;1.20;;;;;;;;;;5052933;28;20108;-62
2022/07/29 12:16:55;;;;;;;3.50;1.40;;;;;;;;;;5052901;28;20051;-62
2022/07/29 12:19:20;;;;;;;4.97;1.45;;;;;;;;;;5052947;28;20033;-62
2022/07/29 12:21:47;;;;;;;6.40;1.40;;;;;;;;;;5048330;28;20017;-62
2022/07/29 12:24:13;;;;;;;3.90;1.00;;;;;;;;;;5052437;28;20057;-62
2022/07/29 12:26:53;;;;;;;4.63;1.40;;;;;;;;;;5052604;28;20072;-62
2022/07/29 12:29:19;;;;;;;4.38;1.60;;;;;;;;;;5051033;28;20515;-64
2022/07/29 12:31:46;;;;;;;2.00;1.20;;;;;;;;;;5046583;28;20044;-62
2022/07/29 12:34:12;;;;;;;6.10;1.65;;;;;;;;;;5052668;28;20025;-63
2022/07/29 12:36:38;;;;;;;3.17;1.20;;;;;;;;;;5049135;28;20086;-62
2022/07/29 12:39:04;;;;;;;2.47;1.70;;;;;;;;;;5051230;28;20037;-61
2022/07/29 12:41:31;;;;;;;3.60;1.65;;;;;;;;;;5048408;28;20033;-62
2022/07/29 12:43:57;;;;;;;5.15;1.40;;;;;;;;;;5051552;28;20075;-63
2022/07/29 12:46:23;;;;;;;5.78;1.55;;;;;;;;;;5052277;28;20029;-63
2022/07/29 12:48:57;;;;;;;4.88;2.25;;;;;;;;;;5052572;28;20033;-62
2022/07/29 12:51:36;;;;;;;4.43;1.30;;;;;;;;;;5032292;28;20557;-62
2022/07/29 12:54:13;;;;;;;3.83;1.48;;;;;;;;;;5045434;28;20033;-63
2022/07/29 12:56:39;;;;;;;4.25;1.15;;;;;;;;;;5056767;28;20045;-63
2022/07/29 12:59:12;;;;;;;4.63;1.50;;;;;;;;;;5033584;28;20405;-62
2022/07/29 13:01:38;;;;;;;6.13;1.30;;;;;;;;;;5027402;28;20040;-62
2022/07/29 13:04:04;;;;;;;7.38;1.67;;;;;;;;;;5032340;28;20021;-62
2022/07/29 13:06:36;;;;;;;3.08;1.33;;;;;;;;;;5027860;28;20037;-63
2022/07/29 13:09:07;;;;;;;4.85;1.83;;;;;;;;;;5027760;28;20083;-63
2022/07/29 13:11:44;;;;;;;5.07;1.20;;;;;;;;;;5022967;28;20022;-63
2022/07/29 13:14:10;;;;;;;6.60;1.20;;;;;;;;;;5030805;28;20112;-62
2022/07/29 13:16:38;;;;;;;4.93;1.50;;;;;;;;;;5032147;28;20033;-62
2022/07/29 13:19:05;;;;;;;3.35;1.30;;;;;;;;;;5029916;28;20037;-63
2022/07/29 13:21:31;;;;;;;2.47;1.27;;;;;;;;;;5026812;28;20033;-63
2022/07/29 13:23:57;;;;;;;4.43;1.98;;;;;;;;;;5027698;28;20029;-63
2022/07/29 13:26:23;;;;;;;2.47;1.10;;;;;;;;;;5031644;28;20021;-63
2022/07/29 13:28:49;;;;;;;1.80;1.15;;;;;;;;;;5028987;28;20025;-63
2022/07/29 13:31:15;;;;;;;4.65;1.27;;;;;;;;;;5021752;28;20038;-63
2022/07/29 13:33:41;;;;;;;4.72;1.40;;;;;;;;;;5023004;28;20029;-63
2022/07/29 13:36:07;;;;;;;5.15;1.85;;;;;;;;;;5018654;28;20087;-62
2022/07/29 13:38:33;;;;;;;2.80;1.25;;;;;;;;;;5034448;28;20113;-63
2022/07/29 13:40:59;;;;;;;3.80;1.27;;;;;;;;;;5025905;28;20025;-64
2022/07/29 13:43:25;;;;;;;2.35;1.60;;;;;;;;;;5029786;28;20536;-63
2022/07/29 13:45:51;;;;;;;4.25;1.50;;;;;;;;;;5029268;28;20040;-62
2022/07/29 13:48:18;;;;;;;3.58;1.20;;;;;;;;;;5023382;28;20033;-63
2022/07/29 13:50:45;;;;;;;5.47;1.50;;;;;;;;;;5022949;28;20643;-62
2022/07/29 13:53:11;;;;;;;2.20;1.45;;;;;;;;;;5024146;28;20074;-62
2022/07/29 13:55:37;;;;;;;1.95;1.20;;;;;;;;;;5025931;28;20017;-63
2022/07/29 13:58:03;;;;;;;3.53;1.42;;;;;;;;;;5046334;28;20094;-62
2022/07/29 14:00:29;;;;;;;4.45;1.20;;;;;;;;;;5050237;28;20036;-63
2022/07/29 14:02:56;;;;;;;2.90;1.30;;;;;;;;;;5050042;28;20060;-63
2022/07/29 14:05:22;;;;;;;6.30;1.50;;;;;;;;;;5046230;28;20033;-63
2022/07/29 14:07:48;;;;;;;5.00;1.30;;;;;;;;;;5049201;28;20044;-63
2022/07/29 14:10:14;;;;;;;6.45;1.60;;;;;;;;;;5039210;28;20707;-63
2022/07/29 14:12:41;;;;;;;4.78;1.35;;;;;;;;;;5048220;28;20057;-63
2022/07/29 14:15:08;;;;;;;1.80;1.23;;;;;;;;;;5049327;28;20033;-62
2022/07/29 14:17:34;;;;;;;3.58;1.10;;;;;;;;;;5050036;28;20071;-63
2022/07/29 14:20:00;;;;;;;5.53;1.20;;;;;;;;;;5043785;28;20553;-62
2022/07/29 14:22:26;;;;;;;1.83;1.00;;;;;;;;;;5022658;28;20062;-63
2022/07/29 14:24:52;;;;;;;4.57;1.23;;;;;;;;;;5048106;28;20029;-63
2022/07/29 14:27:18;;;;;;;7.15;1.75;;;;;;;;;;5050516;28;20477;-63
2022/07/29 14:29:44;;;;;;;5.10;1.30;;;;;;;;;;5047715;28;20060;-62
2022/07/29 14:32:11;;;;;;;4.50;1.20;;;;;;;;;;5045287;28;20091;-63
2022/07/29 14:34:37;;;;;;;4.93;0.98;;;;;;;;;;5051020;28;20022;-63
2022/07/29 14:37:05;;;;;;;1.92;1.10;;;;;;;;;;5050362;28;20100;-63
2022/07/29 14:39:31;;;;;;;5.15;0.93;;;;;;;;;;5050787;28;20033;-63
2022/07/29 14:41:57;;;;;;;6.10;1.65;;;;;;;;;;5046554;28;20044;-63
2022/07/29 14:44:24;;;;;;;6.93;1.20;;;;;;;;;;5046904;28;20093;-64
2022/07/29 14:46:50;;;;;;;3.40;1.20;;;;;;;;;;5029615;28;20028;-63
2022/07/29 14:49:16;;;;;;;2.75;1.30;;;;;;;;;;5038625;28;20088;-63
2022/07/29 14:51:42;;;;;;;4.60;1.20;;;;;;;;;;5035669;28;20104;-63
2022/07/29 14:54:08;;;;;;;2.22;1.10;;;;;;;;;;5036243;28;20469;-63